< < Back
Terminal Aerodrome Forecast


Current Version              Previous Versions:   1  2  3  4  5  6  7  8  9  

Terminal Aerodrome Forecast

640
FTUS42 KFFC 180605 RRA
TAFMCN
TAF
KMCN 180605Z 1806/1906 30004KT P6SM FEW250
     FM181200 29003KT P6SM SCT150 BKN250
     FM181900 30005KT P6SM BKN060
     FM190100 31004KT P6SM SCT080 BKN150=

Latest METAR

111
SAUS80 KWBC 181400 RRB
MTRMCN
METAR KMCN 181353Z 29003KT 7SM CLR 03/02 A3019 RMK AO2 SLP224
T00280022


USA.gov is the U.S. government's official web portal to all federal, state and local government web resources and services.